Time;durP1;ratioP1;P1;durP2;ratioP2;P2;SDS_P1;SDS_P2;PMS_P1;PMS_P2;Temp;Humidity;BMP_temperature;BMP_pressure;BME280_temperature;BME280_humidity;BME280_pressure;Samples;Min_cycle;Max_cycle;Signal;HPM_P1;HPM_P2
2023/01/12 00:02:14;;;;;;;2.75;2.55;;;8.70;99.90;;;;;;5112609;28;20207;-82
2023/01/12 00:04:43;;;;;;;3.20;3.00;;;8.70;99.90;;;;;;5112288;28;20231;-82
2023/01/12 00:07:14;;;;;;;3.08;2.88;;;8.70;99.90;;;;;;5111284;28;20219;-82
2023/01/12 00:09:43;;;;;;;3.25;2.97;;;8.60;99.90;;;;;;5110638;28;20220;-82
2023/01/12 00:12:12;;;;;;;3.03;2.83;;;8.70;99.90;;;;;;5112559;28;20214;-83
2023/01/12 00:14:40;;;;;;;3.50;3.20;;;8.70;99.90;;;;;;5112238;28;20212;-82
2023/01/12 00:17:15;;;;;;;3.15;2.85;;;8.70;99.90;;;;;;5112270;28;20224;-81
2023/01/12 00:19:43;;;;;;;2.97;2.78;;;8.70;99.90;;;;;;5112097;28;20221;-82
2023/01/12 00:22:15;;;;;;;3.15;2.90;;;8.80;99.90;;;;;;5111656;28;20214;-82
2023/01/12 00:24:45;;;;;;;2.85;2.65;;;8.70;99.90;;;;;;5111651;28;20227;-82
2023/01/12 00:27:16;;;;;;;7.63;2.83;;;8.70;99.90;;;;;;5111383;28;20257;-82
2023/01/12 00:29:44;;;;;;;3.22;2.95;;;8.80;99.90;;;;;;5111496;28;20212;-82
2023/01/12 00:32:16;;;;;;;3.20;2.90;;;8.80;99.90;;;;;;5111889;28;20215;-82
2023/01/12 00:34:44;;;;;;;3.38;3.08;;;8.80;99.90;;;;;;5111610;28;20211;-82
2023/01/12 00:37:13;;;;;;;8.57;3.40;;;8.80;99.90;;;;;;5111504;28;20280;-82
2023/01/12 00:39:41;;;;;;;4.38;3.42;;;8.80;99.90;;;;;;5111408;28;20215;-82
2023/01/12 00:45:23;;;;;;;3.28;3.08;;;8.90;99.90;;;;;;5111495;28;20210;-82
2023/01/12 00:47:53;;;;;;;3.20;3.00;;;8.90;99.90;;;;;;5110822;28;20214;-82
2023/01/12 00:50:22;;;;;;;3.15;2.92;;;8.90;99.90;;;;;;5111386;28;20294;-81
2023/01/12 00:52:50;;;;;;;3.58;3.28;;;8.90;99.90;;;;;;5111139;28;20214;-81
2023/01/12 00:55:21;;;;;;;2.97;2.78;;;8.90;99.90;;;;;;5111092;28;20231;-81
2023/01/12 00:57:49;;;;;;;3.63;3.33;;;8.90;99.90;;;;;;5111140;28;20211;-86
2023/01/12 01:00:18;;;;;;;3.47;3.17;;;8.90;99.90;;;;;;5110932;28;20278;-87
2023/01/12 01:02:46;;;;;;;3.05;2.83;;;8.90;99.90;;;;;;5111436;28;20208;-86
2023/01/12 01:05:17;;;;;;;4.45;4.05;;;8.90;99.90;;;;;;5110826;28;20212;-85
2023/01/12 01:07:46;;;;;;;3.72;3.42;;;8.90;99.90;;;;;;5110665;28;20210;-81
2023/01/12 01:10:15;;;;;;;4.00;3.70;;;8.90;99.90;;;;;;5111196;28;20250;-81
2023/01/12 01:12:44;;;;;;;3.28;3.05;;;8.90;99.90;;;;;;5111137;28;20207;-81
2023/01/12 01:15:12;;;;;;;3.55;3.25;;;8.90;99.90;;;;;;5110825;28;20203;-82
2023/01/12 01:17:40;;;;;;;3.97;3.40;;;8.90;99.90;;;;;;5111025;28;20210;-82
2023/01/12 01:20:11;;;;;;;4.07;3.67;;;8.90;99.90;;;;;;5110609;28;20254;-81
2023/01/12 01:22:41;;;;;;;3.13;2.88;;;8.90;99.90;;;;;;5110890;28;20254;-82
2023/01/12 01:25:09;;;;;;;4.47;4.07;;;8.90;99.90;;;;;;5111276;28;20295;-81
2023/01/12 01:27:38;;;;;;;4.45;3.85;;;8.90;99.90;;;;;;5111088;28;20298;-82
2023/01/12 01:30:07;;;;;;;4.25;3.72;;;8.80;99.90;;;;;;5110632;28;20226;-82
2023/01/12 01:32:35;;;;;;;4.68;4.18;;;8.90;99.90;;;;;;5110877;28;20208;-82
2023/01/12 01:35:04;;;;;;;4.65;4.15;;;8.80;99.90;;;;;;5111148;28;20203;-82
2023/01/12 01:37:32;;;;;;;4.82;4.43;;;8.80;99.90;;;;;;5110454;28;20231;-82
2023/01/12 01:40:02;;;;;;;4.10;3.80;;;8.80;99.90;;;;;;5111027;28;20213;-82
2023/01/12 01:42:30;;;;;;;3.78;3.47;;;8.90;99.90;;;;;;5112425;28;20208;-82
2023/01/12 01:45:00;;;;;;;5.05;4.57;;;8.80;99.90;;;;;;5113077;28;20215;-82
2023/01/12 01:47:34;;;;;;;5.90;4.28;;;8.90;99.90;;;;;;5112840;28;20307;-82
2023/01/12 01:50:06;;;;;;;4.95;3.90;;;8.90;99.90;;;;;;5112894;28;20196;-82
2023/01/12 01:52:37;;;;;;;4.38;3.85;;;8.80;99.90;;;;;;5113265;28;20196;-82
2023/01/12 01:55:11;;;;;;;4.50;3.78;;;8.80;99.90;;;;;;5112894;28;20210;-81
2023/01/12 01:57:44;;;;;;;3.90;3.45;;;8.80;99.90;;;;;;5112368;28;20216;-82
2023/01/12 02:00:13;;;;;;;3.63;3.33;;;8.80;99.90;;;;;;5112881;28;20222;-82
2023/01/12 02:02:44;;;;;;;4.03;3.58;;;8.80;99.90;;;;;;5112807;28;20204;-82
2023/01/12 02:05:16;;;;;;;4.05;3.42;;;8.80;99.90;;;;;;5113359;28;20208;-82
2023/01/12 02:07:44;;;;;;;3.95;2.65;;;8.80;99.90;;;;;;5112503;28;20214;-83
2023/01/12 02:10:14;;;;;;;3.50;3.20;;;8.70;99.90;;;;;;5112923;28;20272;-82
2023/01/12 02:18:28;;;;;;;3.00;2.80;;;8.70;99.90;;;;;;5113000;28;20210;-82
2023/01/12 02:21:12;;;;;;;3.90;3.30;;;8.70;99.90;;;;;;5113214;28;20196;-82
2023/01/12 02:24:19;;;;;;;3.65;2.97;;;8.70;99.90;;;;;;5112874;28;20215;-83
2023/01/12 02:27:17;;;;;;;2.75;2.55;;;8.70;99.90;;;;;;5112736;28;20211;-82
2023/01/12 02:30:29;;;;;;;3.22;2.88;;;8.70;99.90;;;;;;5112792;28;20207;-82
2023/01/12 02:33:12;;;;;;;2.47;2.28;;;8.70;99.90;;;;;;5115195;28;20559;-82
2023/01/12 02:35:51;;;;;;;2.38;2.17;;;8.70;99.90;;;;;;5116245;28;20234;-85
2023/01/12 02:38:27;;;;;;;2.08;1.98;;;8.70;99.90;;;;;;5115981;28;20242;-85
2023/01/12 02:41:06;;;;;;;2.95;2.70;;;8.60;99.90;;;;;;5116480;28;20199;-86
2023/01/12 02:43:36;;;;;;;2.78;2.22;;;8.60;99.90;;;;;;5116625;28;20260;-86
2023/01/12 02:46:12;;;;;;;2.75;2.55;;;8.70;99.90;;;;;;5116064;28;20311;-86
2023/01/12 02:48:48;;;;;;;3.03;2.60;;;8.60;99.90;;;;;;5115579;28;20256;-85
2023/01/12 02:51:22;;;;;;;3.00;2.63;;;8.60;99.90;;;;;;5115911;28;20211;-86
2023/01/12 02:53:53;;;;;;;2.75;2.53;;;8.60;99.90;;;;;;5116271;28;20191;-86
2023/01/12 02:56:24;;;;;;;2.83;2.55;;;8.70;99.90;;;;;;5115740;28;20231;-86
2023/01/12 02:58:56;;;;;;;2.47;2.28;;;8.70;99.90;;;;;;5116021;28;20203;-86
2023/01/12 03:01:27;;;;;;;2.15;2.00;;;8.70;99.90;;;;;;5115739;28;20214;-85
2023/01/12 03:04:01;;;;;;;3.08;2.67;;;8.60;99.90;;;;;;5115907;28;20210;-85
2023/01/12 03:06:39;;;;;;;2.80;2.60;;;8.60;99.90;;;;;;5115340;28;20212;-85
2023/01/12 03:09:08;;;;;;;2.55;2.35;;;8.60;99.90;;;;;;5116194;27;20205;-85
2023/01/12 03:11:40;;;;;;;3.33;2.85;;;8.60;99.90;;;;;;5115761;28;20458;-86
2023/01/12 03:14:11;;;;;;;3.05;2.75;;;8.60;99.90;;;;;;5115629;28;20209;-86
2023/01/12 03:16:41;;;;;;;2.42;2.22;;;8.50;99.90;;;;;;5115226;28;20254;-85
2023/01/12 03:19:14;;;;;;;6.50;2.17;;;8.60;99.90;;;;;;5115421;28;20210;-85
2023/01/12 03:21:49;;;;;;;3.40;2.10;;;8.50;99.90;;;;;;5115428;28;20202;-86
2023/01/12 03:24:20;;;;;;;2.83;2.63;;;8.60;99.90;;;;;;5115532;28;20282;-86
2023/01/12 03:26:50;;;;;;;1.88;1.77;;;8.50;99.90;;;;;;5115497;28;20228;-85
2023/01/12 03:29:24;;;;;;;2.13;2.00;;;8.50;99.90;;;;;;5115167;28;20211;-85
2023/01/12 03:31:53;;;;;;;2.72;1.95;;;8.50;99.90;;;;;;5115199;28;20211;-84
2023/01/12 03:34:23;;;;;;;2.15;2.05;;;8.60;99.90;;;;;;5114928;28;20199;-85
2023/01/12 03:36:57;;;;;;;2.15;1.95;;;8.50;99.90;;;;;;5115067;28;20223;-86
2023/01/12 03:39:33;;;;;;;2.00;1.90;;;8.50;99.90;;;;;;5114898;28;20199;-85
2023/01/12 03:42:07;;;;;;;4.75;2.30;;;8.50;99.90;;;;;;5115098;28;20207;-85
2023/01/12 03:44:41;;;;;;;4.95;2.15;;;8.50;99.90;;;;;;5114663;28;20209;-85
2023/01/12 03:47:14;;;;;;;2.95;2.25;;;8.50;99.90;;;;;;5113944;28;20220;-86
2023/01/12 03:49:48;;;;;;;2.70;2.38;;;8.50;99.90;;;;;;5115444;28;20204;-86
2023/01/12 03:52:18;;;;;;;2.17;1.95;;;8.50;99.90;;;;;;5114838;28;20209;-85
2023/01/12 03:54:47;;;;;;;2.35;2.25;;;8.50;99.90;;;;;;5114893;28;20290;-85
2023/01/12 03:57:16;;;;;;;2.15;2.05;;;8.40;99.90;;;;;;5114271;28;20310;-85
2023/01/12 03:59:44;;;;;;;3.30;2.60;;;8.40;99.90;;;;;;5114607;28;20216;-86
2023/01/12 04:02:13;;;;;;;2.35;2.15;;;8.40;99.90;;;;;;5114378;28;20206;-86
2023/01/12 04:04:41;;;;;;;3.47;2.67;;;8.40;99.90;;;;;;5114765;28;20207;-86
2023/01/12 04:07:11;;;;;;;3.25;2.50;;;8.40;99.90;;;;;;5114179;28;20338;-86
2023/01/12 04:09:39;;;;;;;2.35;2.13;;;8.40;99.90;;;;;;5114296;28;20210;-86
2023/01/12 04:12:10;;;;;;;2.35;2.17;;;8.40;99.90;;;;;;5114246;28;20200;-86
2023/01/12 04:14:39;;;;;;;2.80;2.03;;;8.40;99.90;;;;;;5114291;28;20210;-86
2023/01/12 04:17:08;;;;;;;2.42;2.25;;;8.40;99.90;;;;;;5113899;28;20227;-86
2023/01/12 04:19:36;;;;;;;2.53;2.17;;;8.40;99.90;;;;;;5114003;28;20229;-86
2023/01/12 04:24:51;;;;;;;2.85;2.60;;;8.40;99.90;;;;;;5114358;28;20218;-85
2023/01/12 04:27:19;;;;;;;3.15;2.78;;;8.30;99.90;;;;;;5113611;28;20227;-84
2023/01/12 04:29:48;;;;;;;12.10;2.40;;;8.30;99.90;;;;;;5114288;28;20207;-85
2023/01/12 04:32:16;;;;;;;3.88;2.15;;;8.30;99.90;;;;;;5113858;28;20207;-85
2023/01/12 04:34:45;;;;;;;1.88;1.77;;;8.20;99.90;;;;;;5113606;28;20218;-85
2023/01/12 04:37:13;;;;;;;5.78;1.95;;;8.20;99.90;;;;;;5113348;28;20219;-85
2023/01/12 04:39:41;;;;;;;2.53;2.33;;;8.20;99.90;;;;;;5113509;28;20208;-85
2023/01/12 04:44:53;;;;;;;2.78;2.50;;;8.20;99.90;;;;;;5113773;28;20218;-84
2023/01/12 04:47:21;;;;;;;2.00;1.88;;;8.20;99.90;;;;;;5113217;28;20212;-85
2023/01/12 04:49:50;;;;;;;1.65;1.55;;;8.20;99.90;;;;;;5113409;28;20231;-85
2023/01/12 04:52:18;;;;;;;1.63;1.38;;;8.10;99.90;;;;;;5113464;28;20228;-85
2023/01/12 04:54:46;;;;;;;1.60;1.50;;;8.10;99.90;;;;;;5112831;28;20204;-85
2023/01/12 04:57:16;;;;;;;2.50;1.83;;;8.10;99.90;;;;;;5113268;28;20318;-84
2023/01/12 04:59:44;;;;;;;7.47;2.20;;;8.10;99.90;;;;;;5113533;28;20275;-84
2023/01/12 05:02:13;;;;;;;1.35;1.30;;;8.10;99.90;;;;;;5113843;28;20210;-85
2023/01/12 05:04:41;;;;;;;1.42;1.23;;;8.10;99.90;;;;;;5113651;28;20202;-85
2023/01/12 05:07:09;;;;;;;2.72;2.10;;;8.10;99.90;;;;;;5112494;28;20223;-85
2023/01/12 05:12:24;;;;;;;8.70;2.20;;;8.00;99.90;;;;;;5113196;28;20204;-85
2023/01/12 05:14:53;;;;;;;1.50;1.40;;;8.00;99.90;;;;;;5113590;28;20294;-86
2023/01/12 05:17:21;;;;;;;2.78;1.40;;;8.00;99.90;;;;;;5113151;28;20227;-85
2023/01/12 05:19:50;;;;;;;3.08;1.88;;;8.00;99.90;;;;;;5113204;28;20216;-85
2023/01/12 05:22:18;;;;;;;2.08;1.83;;;8.00;99.90;;;;;;5113132;28;20207;-86
2023/01/12 05:24:46;;;;;;;1.92;1.55;;;8.00;99.90;;;;;;5113324;28;20214;-85
2023/01/12 05:27:14;;;;;;;6.60;2.47;;;7.90;99.90;;;;;;5112883;28;20228;-84
2023/01/12 05:29:44;;;;;;;2.65;1.83;;;7.90;99.90;;;;;;5113284;28;20206;-85
2023/01/12 05:32:12;;;;;;;1.70;1.60;;;7.90;99.90;;;;;;5113012;28;20200;-85
2023/01/12 05:34:40;;;;;;;1.60;1.50;;;7.90;99.90;;;;;;5113349;28;20208;-85
2023/01/12 05:37:08;;;;;;;2.30;1.90;;;7.80;99.90;;;;;;5112851;28;20227;-85
2023/01/12 05:39:37;;;;;;;1.88;1.75;;;7.80;99.90;;;;;;5112614;28;20235;-85
2023/01/12 05:44:52;;;;;;;3.45;1.95;;;7.80;99.90;;;;;;5112998;28;20200;-86
2023/01/12 05:47:20;;;;;;;2.78;2.05;;;7.80;99.90;;;;;;5112585;28;20237;-85
2023/01/12 05:49:48;;;;;;;1.73;1.40;;;7.80;99.90;;;;;;5112974;28;20196;-85
2023/01/12 05:52:17;;;;;;;2.28;1.65;;;7.70;99.90;;;;;;5113199;28;20210;-86
2023/01/12 05:54:45;;;;;;;4.45;2.38;;;7.80;99.90;;;;;;5112804;28;20208;-86
2023/01/12 05:57:13;;;;;;;2.05;1.85;;;7.70;99.90;;;;;;5112431;28;20226;-86
2023/01/12 05:59:41;;;;;;;2.58;2.05;;;7.70;99.90;;;;;;5112609;28;20219;-86
2023/01/12 06:02:16;;;;;;;3.33;2.20;;;7.70;99.90;;;;;;5112961;28;20219;-86
2023/01/12 06:04:45;;;;;;;3.47;2.00;;;7.70;99.90;;;;;;5112639;28;20207;-86
2023/01/12 06:07:14;;;;;;;1.65;1.55;;;7.60;99.90;;;;;;5115139;28;20311;-86
2023/01/12 06:09:42;;;;;;;2.13;1.98;;;7.60;99.90;;;;;;5116826;28;20206;-86
2023/01/12 06:14:57;;;;;;;2.58;1.88;;;7.50;99.90;;;;;;5116811;28;20206;-85
2023/01/12 06:17:27;;;;;;;2.20;2.00;;;7.50;99.90;;;;;;5116422;28;20224;-86
2023/01/12 06:19:55;;;;;;;1.73;1.60;;;7.50;99.90;;;;;;5116280;28;20231;-85
2023/01/12 06:22:23;;;;;;;2.42;2.05;;;7.50;99.90;;;;;;5116604;28;20214;-85
2023/01/12 06:24:53;;;;;;;2.30;1.73;;;7.50;99.90;;;;;;5116099;28;20211;-86
2023/01/12 06:27:21;;;;;;;3.55;2.58;;;7.40;99.90;;;;;;5116364;27;20310;-86
2023/01/12 06:29:50;;;;;;;2.58;2.00;;;7.40;99.90;;;;;;5116044;27;20210;-86
2023/01/12 06:32:18;;;;;;;1.73;1.63;;;7.40;99.90;;;;;;5116138;28;20204;-86
2023/01/12 06:34:48;;;;;;;2.15;1.95;;;7.30;99.90;;;;;;5116080;28;20208;-85
2023/01/12 06:37:16;;;;;;;2.25;1.85;;;7.30;99.90;;;;;;5115508;28;20228;-85
2023/01/12 06:39:44;;;;;;;2.22;1.75;;;7.20;99.90;;;;;;5115940;28;20220;-85
2023/01/12 06:42:31;;;;;;;2.35;1.85;;;7.20;99.90;;;;;;5116489;28;20207;-86
2023/01/12 06:45:02;;;;;;;2.08;1.65;;;7.20;99.90;;;;;;5115966;27;20290;-85
2023/01/12 06:47:31;;;;;;;2.40;1.92;;;7.10;99.90;;;;;;5115485;28;20218;-85
2023/01/12 06:50:00;;;;;;;2.50;2.13;;;7.10;99.90;;;;;;5115732;28;20226;-84
2023/01/12 06:52:29;;;;;;;1.98;1.67;;;7.10;99.90;;;;;;5115975;28;20195;-85
2023/01/12 06:54:58;;;;;;;3.50;2.03;;;7.00;99.90;;;;;;5115973;28;20214;-85
2023/01/12 06:57:29;;;;;;;4.90;2.83;;;7.00;99.90;;;;;;5115455;28;20220;-85
2023/01/12 06:59:57;;;;;;;5.00;2.22;;;7.00;99.90;;;;;;5115390;28;20223;-86
2023/01/12 07:02:25;;;;;;;3.00;2.80;;;6.90;99.90;;;;;;5115426;28;20200;-85
2023/01/12 07:04:54;;;;;;;2.60;2.08;;;6.90;99.90;;;;;;5115511;28;20213;-85
2023/01/12 07:07:23;;;;;;;2.15;2.00;;;6.90;99.90;;;;;;5116112;28;20227;-85
2023/01/12 07:09:52;;;;;;;6.07;2.97;;;6.90;99.90;;;;;;5115699;28;20362;-84
2023/01/12 07:12:20;;;;;;;2.33;2.10;;;6.80;99.90;;;;;;5115853;28;20223;-85
2023/01/12 07:14:48;;;;;;;3.58;2.47;;;6.80;99.90;;;;;;5115220;28;20243;-86
2023/01/12 07:17:17;;;;;;;6.03;2.30;;;6.80;99.90;;;;;;5114670;28;20219;-86
2023/01/12 07:19:45;;;;;;;4.05;2.45;;;6.80;99.90;;;;;;5114879;28;20224;-86
2023/01/12 07:22:13;;;;;;;2.67;2.47;;;6.80;99.90;;;;;;5115272;28;20207;-86
2023/01/12 07:24:43;;;;;;;1.92;1.83;;;6.80;99.90;;;;;;5115220;28;20291;-86
2023/01/12 07:27:12;;;;;;;3.15;1.65;;;6.80;99.90;;;;;;5114816;28;20219;-85
2023/01/12 07:29:40;;;;;;;3.92;1.75;;;6.80;99.90;;;;;;5114518;28;20243;-85
2023/01/12 07:32:08;;;;;;;2.70;2.22;;;6.90;99.90;;;;;;5114623;28;20203;-85
2023/01/12 07:34:37;;;;;;;1.77;1.67;;;6.90;99.90;;;;;;5115364;28;20214;-85
2023/01/12 07:37:05;;;;;;;2.33;1.65;;;6.90;99.90;;;;;;5114661;28;20230;-84
2023/01/12 07:39:33;;;;;;;1.63;1.52;;;6.90;99.90;;;;;;5114656;28;20215;-84
2023/01/12 07:44:49;;;;;;;1.58;1.40;;;7.00;99.90;;;;;;5114405;28;20199;-85
2023/01/12 07:47:17;;;;;;;1.00;1.00;;;7.10;99.90;;;;;;5114759;28;20234;-85
2023/01/12 07:49:45;;;;;;;3.03;1.45;;;7.10;99.90;;;;;;5114488;28;20204;-85
2023/01/12 07:52:14;;;;;;;3.50;1.85;;;7.10;99.90;;;;;;5114516;28;20207;-85
2023/01/12 07:54:42;;;;;;;1.77;1.23;;;7.10;99.90;;;;;;5114211;28;20218;-84
2023/01/12 07:57:12;;;;;;;1.50;1.15;;;7.30;99.90;;;;;;5114017;28;20310;-84
2023/01/12 07:59:41;;;;;;;2.30;1.35;;;7.40;99.90;;;;;;5114154;28;20223;-84
2023/01/12 08:02:15;;;;;;;1.60;1.50;;;7.40;99.90;;;;;;5114662;28;20204;-85
2023/01/12 08:04:43;;;;;;;1.02;0.85;;;7.50;99.90;;;;;;5114322;28;20203;-85
2023/01/12 08:07:12;;;;;;;6.82;1.10;;;7.60;99.90;;;;;;5113758;28;20220;-84
2023/01/12 08:09:40;;;;;;;1.98;0.90;;;7.80;99.90;;;;;;5113887;28;20259;-84
2023/01/12 08:12:09;;;;;;;1.27;1.10;;;7.90;99.90;;;;;;5114048;28;20287;-85
2023/01/12 08:14:41;;;;;;;1.75;1.17;;;8.00;99.90;;;;;;5113927;28;20203;-84
2023/01/12 08:17:17;;;;;;;1.75;1.17;;;8.00;99.90;;;;;;5113822;28;20229;-84
2023/01/12 08:19:49;;;;;;;0.98;0.93;;;8.10;99.90;;;;;;5113657;28;20225;-84
2023/01/12 08:22:22;;;;;;;2.13;1.02;;;8.10;99.90;;;;;;5113676;28;20204;-85
2023/01/12 08:24:56;;;;;;;1.75;1.23;;;8.10;99.90;;;;;;5113512;28;20208;-85
2023/01/12 08:27:28;;;;;;;2.95;1.65;;;8.20;99.90;;;;;;5113795;28;20295;-85
2023/01/12 08:29:58;;;;;;;2.47;1.10;;;8.10;99.90;;;;;;5112901;28;20200;-85
2023/01/12 08:32:29;;;;;;;1.13;0.80;;;8.10;99.90;;;;;;5113545;28;20227;-84
2023/01/12 08:35:00;;;;;;;1.58;0.95;;;8.20;99.90;;;;;;5113801;28;20210;-84
2023/01/12 08:37:30;;;;;;;2.10;1.25;;;8.20;99.90;;;;;;5113498;28;20306;-84
2023/01/12 08:39:58;;;;;;;1.27;0.95;;;8.30;99.90;;;;;;5113618;28;20227;-86
2023/01/12 08:42:26;;;;;;;1.63;1.17;;;8.30;99.90;;;;;;5113689;28;20200;-85
2023/01/12 08:45:00;;;;;;;1.98;1.75;;;8.40;99.90;;;;;;5114009;28;20238;-84
2023/01/12 08:47:29;;;;;;;1.38;1.23;;;8.40;99.90;;;;;;5113084;28;20234;-84
2023/01/12 08:49:59;;;;;;;1.30;0.90;;;8.30;99.90;;;;;;5113287;28;20200;-84
2023/01/12 08:52:30;;;;;;;1.42;1.13;;;8.40;99.90;;;;;;5113503;28;20239;-85
2023/01/12 08:54:59;;;;;;;1.85;1.20;;;8.40;99.90;;;;;;5113760;28;20228;-85
2023/01/12 08:57:27;;;;;;;4.15;1.65;;;8.50;99.90;;;;;;5112820;28;20219;-85
2023/01/12 08:59:56;;;;;;;1.25;0.80;;;8.50;99.90;;;;;;5112971;28;20223;-85
2023/01/12 09:02:26;;;;;;;5.97;1.40;;;8.50;99.90;;;;;;5112931;28;20204;-85
2023/01/12 09:04:55;;;;;;;3.28;1.30;;;8.60;99.90;;;;;;5113109;28;20207;-85
2023/01/12 09:07:23;;;;;;;1.67;1.30;;;8.60;99.90;;;;;;5112914;28;20226;-85
2023/01/12 09:09:51;;;;;;;4.40;1.38;;;8.70;99.90;;;;;;5113124;28;20192;-85
2023/01/12 09:12:19;;;;;;;1.10;1.00;;;8.70;99.90;;;;;;5112880;28;20213;-84
2023/01/12 09:14:52;;;;;;;5.20;1.90;;;8.70;99.90;;;;;;5113084;28;20204;-85
2023/01/12 09:17:22;;;;;;;2.95;1.58;;;8.80;99.90;;;;;;5112755;28;20223;-84
2023/01/12 09:19:52;;;;;;;2.97;1.10;;;8.80;99.90;;;;;;5112843;28;20247;-85
2023/01/12 09:22:23;;;;;;;1.27;1.17;;;8.90;99.90;;;;;;5113032;28;20238;-81
2023/01/12 09:24:51;;;;;;;3.17;1.30;;;8.90;99.90;;;;;;5112395;28;20208;-81
2023/01/12 09:27:22;;;;;;;2.67;1.45;;;9.00;99.90;;;;;;5112699;28;20315;-81
2023/01/12 09:29:50;;;;;;;5.53;1.33;;;9.00;99.90;;;;;;5112311;28;20260;-81
2023/01/12 09:32:19;;;;;;;2.15;1.38;;;9.10;99.90;;;;;;5112978;28;20211;-81
2023/01/12 09:34:58;;;;;;;1.10;1.00;;;9.20;99.90;;;;;;5113057;28;20295;-81
2023/01/12 09:37:28;;;;;;;1.80;1.50;;;9.20;99.90;;;;;;5112120;28;20229;-81
2023/01/12 09:39:56;;;;;;;1.55;1.10;;;9.30;99.90;;;;;;5112940;28;20216;-81
2023/01/12 09:48:05;;;;;;;1.23;1.08;;;9.50;99.90;;;;;;5114416;28;20237;-81
2023/01/12 09:50:38;;;;;;;1.63;1.27;;;9.50;99.90;;;;;;5116001;28;20208;-81
2023/01/12 09:53:12;;;;;;;1.42;1.02;;;9.60;99.90;;;;;;5117002;28;20199;-81
2023/01/12 09:55:47;;;;;;;1.27;1.00;;;9.70;99.90;;;;;;5116617;28;20223;-81
2023/01/12 09:58:30;;;;;;;1.95;1.10;;;9.80;99.90;;;;;;5116466;28;20214;-82
2023/01/12 10:01:01;;;;;;;2.35;1.25;;;9.80;99.90;;;;;;5116191;28;20234;-81
2023/01/12 10:03:37;;;;;;;1.77;1.25;;;9.80;99.90;;;;;;5116464;28;20256;-81
2023/01/12 10:06:12;;;;;;;1.83;1.13;;;9.90;99.90;;;;;;5116252;28;20252;-81
2023/01/12 10:08:43;;;;;;;3.72;1.60;;;9.90;99.90;;;;;;5116018;28;20204;-81
2023/01/12 10:11:17;;;;;;;2.38;1.38;;;10.00;99.90;;;;;;5116450;28;20200;-80
2023/01/12 10:14:07;;;;;;;2.03;1.08;;;10.10;99.90;;;;;;5116328;28;20207;-82
2023/01/12 10:16:47;;;;;;;1.30;1.20;;;10.10;99.90;;;;;;5116592;28;20287;-82
2023/01/12 10:19:25;;;;;;;2.20;1.40;;;10.30;99.90;;;;;;5116085;28;20291;-80
2023/01/12 10:21:55;;;;;;;1.85;1.25;;;10.40;99.90;;;;;;5116084;28;20229;-81
2023/01/12 10:24:25;;;;;;;2.10;1.65;;;10.50;99.90;;;;;;5116269;28;20207;-81
2023/01/12 10:27:02;;;;;;;1.58;1.20;;;10.50;99.90;;;;;;5116226;28;20224;-80
2023/01/12 10:29:33;;;;;;;1.45;1.17;;;10.60;99.90;;;;;;5115758;28;20207;-85
2023/01/12 10:32:01;;;;;;;3.22;1.55;;;10.70;99.90;;;;;;5115842;28;20200;-82
2023/01/12 10:34:49;;;;;;;1.85;1.50;;;11.00;99.90;;;;;;5116063;28;20211;-81
2023/01/12 10:37:19;;;;;;;4.47;1.30;;;11.40;99.90;;;;;;5115332;28;20223;-80
2023/01/12 10:39:51;;;;;;;5.05;1.73;;;11.80;99.90;;;;;;5115863;28;20294;-81
2023/01/12 10:45:28;;;;;;;1.50;1.38;;;12.50;99.90;;;;;;5115812;28;20214;-80
2023/01/12 10:47:57;;;;;;;1.63;1.35;;;12.90;99.90;;;;;;5115154;28;20203;-80
2023/01/12 10:50:28;;;;;;;4.30;1.85;;;13.20;99.90;;;;;;5115616;28;20226;-81
2023/01/12 10:53:02;;;;;;;1.55;1.42;;;13.60;99.90;;;;;;5114688;28;20218;-81
2023/01/12 10:55:33;;;;;;;2.03;1.70;;;13.40;99.90;;;;;;5115334;28;20230;-81
2023/01/12 10:58:02;;;;;;;1.42;1.27;;;13.40;99.90;;;;;;5115327;28;20206;-81
2023/01/12 11:00:31;;;;;;;1.33;1.23;;;13.30;99.90;;;;;;5115067;27;20243;-81
2023/01/12 11:02:59;;;;;;;6.30;1.80;;;13.30;99.90;;;;;;5115079;28;20211;-81
2023/01/12 11:05:30;;;;;;;1.60;1.38;;;13.10;99.90;;;;;;5115747;28;20273;-81
2023/01/12 11:08:00;;;;;;;2.35;1.30;;;13.20;99.90;;;;;;5114827;27;20204;-81
2023/01/12 11:10:30;;;;;;;1.05;1.05;;;13.00;99.90;;;;;;5115114;28;20227;-82
2023/01/12 11:13:02;;;;;;;4.75;1.83;;;12.90;99.90;;;;;;5115075;28;20214;-81
2023/01/12 11:15:37;;;;;;;1.40;1.30;;;12.60;99.90;;;;;;5114832;28;20257;-81
2023/01/12 11:18:23;;;;;;;2.08;1.40;;;12.50;99.90;;;;;;5115019;27;20258;-81
2023/01/12 11:20:56;;;;;;;2.28;1.35;;;12.30;99.90;;;;;;5115023;28;20220;-81
2023/01/12 11:23:30;;;;;;;7.38;1.92;;;12.50;99.90;;;;;;5115423;28;20204;-80
2023/01/12 11:26:02;;;;;;;1.15;1.05;;;12.40;99.90;;;;;;5114913;28;20227;-80
2023/01/12 11:28:35;;;;;;;1.05;0.95;;;12.40;99.90;;;;;;5114312;28;20295;-81
2023/01/12 11:31:08;;;;;;;3.33;1.33;;;12.50;99.90;;;;;;5114603;28;20208;-81
2023/01/12 11:33:40;;;;;;;1.88;1.27;;;12.40;99.90;;;;;;5114540;28;20204;-81
2023/01/12 11:36:12;;;;;;;2.38;1.30;;;12.50;99.90;;;;;;5114628;28;20224;-81
2023/01/12 11:38:46;;;;;;;1.70;1.15;;;12.60;99.90;;;;;;5114690;28;20294;-81
2023/01/12 11:41:24;;;;;;;2.50;1.35;;;12.90;99.90;;;;;;5114477;28;20215;-82
2023/01/12 11:44:01;;;;;;;1.65;1.20;;;13.10;99.90;;;;;;5114245;28;20268;-81
2023/01/12 11:46:34;;;;;;;3.45;1.45;;;13.30;99.20;;;;;;5114795;28;20224;-81
2023/01/12 11:49:10;;;;;;;6.38;1.70;;;13.70;98.60;;;;;;5114249;28;20259;-81
2023/01/12 11:51:39;;;;;;;2.08;1.38;;;13.60;98.30;;;;;;5114466;28;20210;-81
2023/01/12 11:54:14;;;;;;;2.80;1.42;;;13.70;97.60;;;;;;5114211;28;20210;-81
2023/01/12 11:57:01;;;;;;;2.30;1.15;;;13.60;96.80;;;;;;5114156;28;20227;-81
2023/01/12 11:59:36;;;;;;;1.33;1.20;;;13.70;96.60;;;;;;5114277;28;20207;-81
2023/01/12 12:02:23;;;;;;;1.33;1.23;;;13.60;95.70;;;;;;5113863;28;20264;-81
2023/01/12 12:05:02;;;;;;;2.17;1.65;;;13.80;95.80;;;;;;5113792;28;20199;-81
2023/01/12 12:07:44;;;;;;;1.88;1.20;;;13.80;95.70;;;;;;5113765;28;20215;-80
2023/01/12 12:10:22;;;;;;;2.42;1.83;;;13.50;95.10;;;;;;5114180;28;20226;-80
2023/01/12 12:13:35;;;;;;;1.83;1.40;;;13.20;95.60;;;;;;5113210;28;20208;-80
2023/01/12 12:16:16;;;;;;;1.35;1.25;;;13.20;95.90;;;;;;5103407;28;20224;-81
2023/01/12 12:19:02;;;;;;;3.30;1.67;;;13.40;95.50;;;;;;5113648;28;20217;-80
2023/01/12 12:21:49;;;;;;;1.55;1.42;;;13.70;95.50;;;;;;5113817;28;20212;-80
2023/01/12 12:24:38;;;;;;;3.20;1.05;;;14.00;94.70;;;;;;5113641;28;20214;-80
2023/01/12 12:27:16;;;;;;;1.45;1.20;;;14.00;94.50;;;;;;5113682;28;20228;-81
2023/01/12 12:30:23;;;;;;;1.27;1.08;;;14.10;93.90;;;;;;5113818;27;20203;-80
2023/01/12 12:32:58;;;;;;;1.25;1.13;;;14.30;93.80;;;;;;5113607;28;20196;-80
2023/01/12 12:35:40;;;;;;;1.48;1.38;;;13.90;94.10;;;;;;5113301;28;20228;-79
2023/01/12 12:38:20;;;;;;;1.38;1.27;;;14.20;93.80;;;;;;5113568;28;20233;-80
2023/01/12 12:46:58;;;;;;;1.42;1.08;;;14.20;92.20;;;;;;5113281;28;20224;-80
2023/01/12 12:49:32;;;;;;;1.40;1.27;;;13.80;92.80;;;;;;5113759;28;20211;-80
2023/01/12 12:52:01;;;;;;;1.75;1.10;;;13.90;93.00;;;;;;5113227;28;20192;-80
2023/01/12 12:54:30;;;;;;;3.15;1.52;;;14.00;92.50;;;;;;5113052;28;20203;-80
2023/01/12 12:56:59;;;;;;;5.55;2.08;;;14.10;92.70;;;;;;5112870;28;20231;-80
2023/01/12 12:59:58;;;;;;;1.25;1.17;;;14.30;92.20;;;;;;5112937;28;20307;-80
2023/01/12 13:02:40;;;;;;;4.80;1.80;;;14.50;91.80;;;;;;5089397;28;20300;-80
2023/01/12 13:05:10;;;;;;;1.50;1.27;;;14.50;91.70;;;;;;5113019;28;20268;-81
2023/01/12 13:07:44;;;;;;;8.68;1.77;;;14.70;92.00;;;;;;5112843;28;20231;-80
2023/01/12 13:10:31;;;;;;;13.48;1.70;;;14.80;91.50;;;;;;5112844;28;20217;-80
2023/01/12 13:13:23;;;;;;;3.92;2.13;;;14.80;91.10;;;;;;5112691;28;20207;-81
2023/01/12 13:16:42;;;;;;;2.88;2.15;;;14.40;91.00;;;;;;5111996;28;20246;-80
2023/01/12 13:19:33;;;;;;;1.23;1.13;;;14.10;91.10;;;;;;5112912;27;20204;-80
2023/01/12 13:22:26;;;;;;;2.88;1.52;;;13.60;91.20;;;;;;5112574;28;20216;-80
2023/01/12 13:24:55;;;;;;;3.08;1.25;;;13.30;91.70;;;;;;5112844;28;20210;-79
2023/01/12 13:27:49;;;;;;;1.02;0.85;;;13.10;91.80;;;;;;5112440;28;20258;-80
2023/01/12 13:30:23;;;;;;;1.38;0.93;;;12.70;92.60;;;;;;5112706;28;20203;-80
2023/01/12 13:33:00;;;;;;;1.55;1.20;;;12.70;93.20;;;;;;5112812;28;20206;-81
2023/01/12 13:36:07;;;;;;;13.75;1.35;;;12.60;93.40;;;;;;5112545;28;20233;-79
2023/01/12 13:39:06;;;;;;;1.45;1.30;;;12.60;92.90;;;;;;5112375;28;20214;-80
2023/01/12 13:44:26;;;;;;;2.13;1.70;;;12.40;93.80;;;;;;5112744;28;20207;-80
2023/01/12 13:47:03;;;;;;;1.08;0.98;;;12.30;93.20;;;;;;5112432;28;20235;-80
2023/01/12 13:49:35;;;;;;;3.08;1.98;;;12.20;93.40;;;;;;5112600;28;20221;-81
2023/01/12 13:52:07;;;;;;;2.05;1.52;;;12.10;93.70;;;;;;5112631;28;20206;-81
2023/01/12 13:54:47;;;;;;;1.85;1.63;;;12.00;93.70;;;;;;5112485;28;20203;-81
2023/01/12 13:57:20;;;;;;;1.83;1.50;;;12.00;94.30;;;;;;5112552;28;20223;-81
2023/01/12 13:59:59;;;;;;;6.15;1.98;;;12.10;94.30;;;;;;5112105;28;20233;-81
2023/01/12 14:02:30;;;;;;;1.70;1.60;;;12.10;93.70;;;;;;5112135;28;20256;-80
2023/01/12 14:05:18;;;;;;;1.05;0.88;;;12.10;94.00;;;;;;5112276;28;20219;-81
2023/01/12 14:07:54;;;;;;;1.23;1.00;;;12.00;93.20;;;;;;5112088;28;20207;-81